sensor_id;sensor_type;location;lat;lon;timestamp;P1;durP1;ratioP1;P2;durP2;ratioP2
13303;SDS011;6720;51.958;4.540;2022-09-23T00:00:29;13.67;;;9.87;;
13303;SDS011;6720;51.958;4.540;2022-09-23T00:02:55;12.00;;;10.60;;
13303;SDS011;6720;51.958;4.540;2022-09-23T00:05:20;11.03;;;9.17;;
13303;SDS011;6720;51.958;4.540;2022-09-23T00:07:46;11.40;;;9.97;;
13303;SDS011;6720;51.958;4.540;2022-09-23T00:10:12;16.00;;;12.17;;
13303;SDS011;6720;51.958;4.540;2022-09-23T00:12:38;10.90;;;9.77;;
13303;SDS011;6720;51.958;4.540;2022-09-23T00:15:03;13.77;;;9.67;;
13303;SDS011;6720;51.958;4.540;2022-09-23T00:17:30;10.30;;;9.23;;
13303;SDS011;6720;51.958;4.540;2022-09-23T00:19:56;9.70;;;8.70;;
13303;SDS011;6720;51.958;4.540;2022-09-23T00:22:21;10.90;;;9.77;;
13303;SDS011;6720;51.958;4.540;2022-09-23T00:24:47;12.50;;;10.77;;
13303;SDS011;6720;51.958;4.540;2022-09-23T00:27:12;14.30;;;10.50;;
13303;SDS011;6720;51.958;4.540;2022-09-23T00:29:38;12.27;;;10.10;;
13303;SDS011;6720;51.958;4.540;2022-09-23T00:32:03;12.77;;;9.90;;
13303;SDS011;6720;51.958;4.540;2022-09-23T00:34:29;10.50;;;9.40;;
13303;SDS011;6720;51.958;4.540;2022-09-23T00:36:54;11.90;;;9.47;;
13303;SDS011;6720;51.958;4.540;2022-09-23T00:39:21;10.10;;;9.00;;
13303;SDS011;6720;51.958;4.540;2022-09-23T00:41:48;11.47;;;10.00;;
13303;SDS011;6720;51.958;4.540;2022-09-23T00:44:59;12.47;;;10.73;;
13303;SDS011;6720;51.958;4.540;2022-09-23T00:47:13;10.33;;;9.23;;
13303;SDS011;6720;51.958;4.540;2022-09-23T00:49:43;12.17;;;10.20;;
13303;SDS011;6720;51.958;4.540;2022-09-23T00:52:12;12.03;;;10.00;;
13303;SDS011;6720;51.958;4.540;2022-09-23T00:54:40;10.53;;;9.20;;
13303;SDS011;6720;51.958;4.540;2022-09-23T00:57:10;13.27;;;9.70;;
13303;SDS011;6720;51.958;4.540;2022-09-23T00:59:36;14.07;;;12.23;;
13303;SDS011;6720;51.958;4.540;2022-09-23T01:02:02;15.00;;;13.23;;
13303;SDS011;6720;51.958;4.540;2022-09-23T01:04:28;13.30;;;10.47;;
13303;SDS011;6720;51.958;4.540;2022-09-23T01:06:54;11.63;;;10.03;;
13303;SDS011;6720;51.958;4.540;2022-09-23T01:09:19;13.13;;;11.53;;
13303;SDS011;6720;51.958;4.540;2022-09-23T01:11:53;14.30;;;11.53;;
13303;SDS011;6720;51.958;4.540;2022-09-23T01:14:35;11.93;;;10.30;;
13303;SDS011;6720;51.958;4.540;2022-09-23T01:17:15;10.73;;;9.37;;
13303;SDS011;6720;51.958;4.540;2022-09-23T01:30:42;9.27;;;8.37;;
13303;SDS011;6720;51.958;4.540;2022-09-23T01:33:12;15.67;;;13.90;;
13303;SDS011;6720;51.958;4.540;2022-09-23T01:36:08;9.47;;;8.47;;
13303;SDS011;6720;51.958;4.540;2022-09-23T01:38:37;10.17;;;9.17;;
13303;SDS011;6720;51.958;4.540;2022-09-23T01:46:22;12.00;;;9.53;;
13303;SDS011;6720;51.958;4.540;2022-09-23T01:48:59;10.67;;;9.30;;
13303;SDS011;6720;51.958;4.540;2022-09-23T01:51:32;10.83;;;8.90;;
13303;SDS011;6720;51.958;4.540;2022-09-23T01:54:03;9.90;;;8.93;;
13303;SDS011;6720;51.958;4.540;2022-09-23T01:56:32;10.13;;;9.03;;
13303;SDS011;6720;51.958;4.540;2022-09-23T01:59:18;10.63;;;9.00;;
13303;SDS011;6720;51.958;4.540;2022-09-23T02:01:54;9.93;;;8.93;;
13303;SDS011;6720;51.958;4.540;2022-09-23T02:04:35;10.07;;;9.07;;
13303;SDS011;6720;51.958;4.540;2022-09-23T02:07:19;10.80;;;9.70;;
13303;SDS011;6720;51.958;4.540;2022-09-23T02:09:52;10.60;;;9.33;;
13303;SDS011;6720;51.958;4.540;2022-09-23T02:12:26;12.70;;;10.03;;
13303;SDS011;6720;51.958;4.540;2022-09-23T02:14:58;10.63;;;9.43;;
13303;SDS011;6720;51.958;4.540;2022-09-23T02:17:35;10.93;;;9.60;;
13303;SDS011;6720;51.958;4.540;2022-09-23T02:20:11;11.03;;;9.40;;
13303;SDS011;6720;51.958;4.540;2022-09-23T02:25:21;12.93;;;9.77;;
13303;SDS011;6720;51.958;4.540;2022-09-23T02:27:56;13.00;;;10.40;;
13303;SDS011;6720;51.958;4.540;2022-09-23T02:30:35;11.20;;;10.10;;
13303;SDS011;6720;51.958;4.540;2022-09-23T02:35:53;12.87;;;11.67;;
13303;SDS011;6720;51.958;4.540;2022-09-23T02:38:28;14.70;;;11.23;;
13303;SDS011;6720;51.958;4.540;2022-09-23T02:46:23;15.10;;;11.47;;
13303;SDS011;6720;51.958;4.540;2022-09-23T02:49:01;12.93;;;11.20;;
13303;SDS011;6720;51.958;4.540;2022-09-23T02:51:35;16.87;;;13.43;;
13303;SDS011;6720;51.958;4.540;2022-09-23T02:54:02;11.43;;;10.23;;
13303;SDS011;6720;51.958;4.540;2022-09-23T02:56:31;11.87;;;10.33;;
13303;SDS011;6720;51.958;4.540;2022-09-23T02:58:57;11.00;;;9.63;;
13303;SDS011;6720;51.958;4.540;2022-09-23T03:07:05;14.00;;;12.23;;
13303;SDS011;6720;51.958;4.540;2022-09-23T03:12:17;11.47;;;10.37;;
13303;SDS011;6720;51.958;4.540;2022-09-23T03:15:01;10.53;;;9.50;;
13303;SDS011;6720;51.958;4.540;2022-09-23T03:20:13;12.93;;;11.57;;
13303;SDS011;6720;51.958;4.540;2022-09-23T03:22:45;12.80;;;10.77;;
13303;SDS011;6720;51.958;4.540;2022-09-23T03:25:17;10.23;;;9.23;;
13303;SDS011;6720;51.958;4.540;2022-09-23T03:27:46;13.53;;;12.13;;
13303;SDS011;6720;51.958;4.540;2022-09-23T03:30:11;11.30;;;10.20;;
13303;SDS011;6720;51.958;4.540;2022-09-23T03:32:40;11.33;;;10.10;;
13303;SDS011;6720;51.958;4.540;2022-09-23T03:35:08;13.07;;;11.37;;
13303;SDS011;6720;51.958;4.540;2022-09-23T03:37:34;14.03;;;11.33;;
13303;SDS011;6720;51.958;4.540;2022-09-23T03:40:21;12.97;;;10.57;;
13303;SDS011;6720;51.958;4.540;2022-09-23T03:42:51;11.73;;;10.03;;
13303;SDS011;6720;51.958;4.540;2022-09-23T03:45:21;16.40;;;13.07;;
13303;SDS011;6720;51.958;4.540;2022-09-23T03:47:51;11.13;;;10.00;;
13303;SDS011;6720;51.958;4.540;2022-09-23T03:50:17;10.13;;;9.13;;
13303;SDS011;6720;51.958;4.540;2022-09-23T03:52:42;11.87;;;10.33;;
13303;SDS011;6720;51.958;4.540;2022-09-23T03:55:09;10.87;;;9.70;;
13303;SDS011;6720;51.958;4.540;2022-09-23T03:57:35;10.47;;;9.37;;
13303;SDS011;6720;51.958;4.540;2022-09-23T04:00:02;11.33;;;10.23;;
13303;SDS011;6720;51.958;4.540;2022-09-23T04:02:28;12.40;;;11.10;;
13303;SDS011;6720;51.958;4.540;2022-09-23T04:04:53;10.90;;;9.60;;
13303;SDS011;6720;51.958;4.540;2022-09-23T04:07:20;11.50;;;10.30;;
13303;SDS011;6720;51.958;4.540;2022-09-23T04:09:45;12.40;;;11.10;;
13303;SDS011;6720;51.958;4.540;2022-09-23T04:12:11;10.57;;;9.47;;
13303;SDS011;6720;51.958;4.540;2022-09-23T04:14:39;9.67;;;8.67;;
13303;SDS011;6720;51.958;4.540;2022-09-23T04:17:04;10.37;;;9.20;;
13303;SDS011;6720;51.958;4.540;2022-09-23T04:19:30;12.37;;;11.07;;
13303;SDS011;6720;51.958;4.540;2022-09-23T04:21:55;12.23;;;10.73;;
13303;SDS011;6720;51.958;4.540;2022-09-23T04:24:20;11.37;;;10.27;;
13303;SDS011;6720;51.958;4.540;2022-09-23T04:26:48;11.60;;;9.60;;
13303;SDS011;6720;51.958;4.540;2022-09-23T04:29:19;10.80;;;9.20;;
13303;SDS011;6720;51.958;4.540;2022-09-23T04:31:45;9.77;;;8.30;;
13303;SDS011;6720;51.958;4.540;2022-09-23T04:34:10;10.77;;;9.77;;
13303;SDS011;6720;51.958;4.540;2022-09-23T04:36:36;12.60;;;10.47;;
13303;SDS011;6720;51.958;4.540;2022-09-23T04:39:02;10.30;;;8.67;;
13303;SDS011;6720;51.958;4.540;2022-09-23T04:41:27;10.83;;;9.73;;
13303;SDS011;6720;51.958;4.540;2022-09-23T04:43:53;11.00;;;9.90;;
13303;SDS011;6720;51.958;4.540;2022-09-23T04:46:20;11.30;;;10.10;;
13303;SDS011;6720;51.958;4.540;2022-09-23T04:48:45;11.77;;;9.53;;
13303;SDS011;6720;51.958;4.540;2022-09-23T04:51:12;11.13;;;9.50;;
13303;SDS011;6720;51.958;4.540;2022-09-23T04:53:39;9.57;;;8.67;;
13303;SDS011;6720;51.958;4.540;2022-09-23T04:56:07;8.93;;;8.03;;
13303;SDS011;6720;51.958;4.540;2022-09-23T04:58:38;10.03;;;8.63;;
13303;SDS011;6720;51.958;4.540;2022-09-23T05:03:37;12.93;;;9.57;;
13303;SDS011;6720;51.958;4.540;2022-09-23T05:06:03;14.23;;;12.57;;
13303;SDS011;6720;51.958;4.540;2022-09-23T05:08:29;12.30;;;9.17;;
13303;SDS011;6720;51.958;4.540;2022-09-23T05:10:58;11.67;;;9.37;;
13303;SDS011;6720;51.958;4.540;2022-09-23T05:13:25;9.77;;;8.87;;
13303;SDS011;6720;51.958;4.540;2022-09-23T05:16:24;11.07;;;9.27;;
13303;SDS011;6720;51.958;4.540;2022-09-23T05:18:42;11.70;;;9.60;;
13303;SDS011;6720;51.958;4.540;2022-09-23T05:21:09;10.60;;;9.50;;
13303;SDS011;6720;51.958;4.540;2022-09-23T05:23:36;11.67;;;10.10;;
13303;SDS011;6720;51.958;4.540;2022-09-23T05:26:04;14.20;;;12.37;;
13303;SDS011;6720;51.958;4.540;2022-09-23T05:28:31;11.07;;;9.50;;
13303;SDS011;6720;51.958;4.540;2022-09-23T05:31:05;12.70;;;10.63;;
13303;SDS011;6720;51.958;4.540;2022-09-23T05:33:31;12.30;;;10.37;;
13303;SDS011;6720;51.958;4.540;2022-09-23T05:35:57;11.17;;;10.07;;
13303;SDS011;6720;51.958;4.540;2022-09-23T05:38:22;12.27;;;9.77;;
13303;SDS011;6720;51.958;4.540;2022-09-23T05:40:57;11.33;;;10.13;;
13303;SDS011;6720;51.958;4.540;2022-09-23T05:43:30;12.80;;;9.67;;
13303;SDS011;6720;51.958;4.540;2022-09-23T05:46:29;14.37;;;11.33;;
13303;SDS011;6720;51.958;4.540;2022-09-23T05:48:50;11.13;;;9.87;;
13303;SDS011;6720;51.958;4.540;2022-09-23T05:51:17;15.13;;;10.23;;
13303;SDS011;6720;51.958;4.540;2022-09-23T05:53:46;11.93;;;10.20;;
13303;SDS011;6720;51.958;4.540;2022-09-23T05:56:13;11.03;;;9.37;;
13303;SDS011;6720;51.958;4.540;2022-09-23T05:58:41;10.73;;;9.33;;
13303;SDS011;6720;51.958;4.540;2022-09-23T06:03:35;13.70;;;11.27;;
13303;SDS011;6720;51.958;4.540;2022-09-23T06:06:01;11.27;;;9.83;;
13303;SDS011;6720;51.958;4.540;2022-09-23T06:08:26;13.87;;;10.13;;
13303;SDS011;6720;51.958;4.540;2022-09-23T06:10:51;11.00;;;9.80;;
13303;SDS011;6720;51.958;4.540;2022-09-23T06:13:17;13.03;;;10.43;;
13303;SDS011;6720;51.958;4.540;2022-09-23T06:15:42;12.07;;;9.27;;
13303;SDS011;6720;51.958;4.540;2022-09-23T06:18:09;14.30;;;10.70;;
13303;SDS011;6720;51.958;4.540;2022-09-23T06:20:34;11.77;;;9.43;;
13303;SDS011;6720;51.958;4.540;2022-09-23T06:23:03;13.93;;;10.60;;
13303;SDS011;6720;51.958;4.540;2022-09-23T06:25:31;15.43;;;11.07;;
13303;SDS011;6720;51.958;4.540;2022-09-23T06:27:57;13.67;;;10.73;;
13303;SDS011;6720;51.958;4.540;2022-09-23T06:30:23;13.80;;;9.87;;
13303;SDS011;6720;51.958;4.540;2022-09-23T06:32:53;16.93;;;11.33;;
13303;SDS011;6720;51.958;4.540;2022-09-23T06:35:21;13.60;;;10.07;;
13303;SDS011;6720;51.958;4.540;2022-09-23T06:37:49;12.73;;;9.77;;
13303;SDS011;6720;51.958;4.540;2022-09-23T06:40:15;13.63;;;10.53;;
13303;SDS011;6720;51.958;4.540;2022-09-23T06:42:41;14.97;;;11.73;;
13303;SDS011;6720;51.958;4.540;2022-09-23T06:45:07;11.37;;;9.67;;
13303;SDS011;6720;51.958;4.540;2022-09-23T06:47:39;11.30;;;9.60;;
13303;SDS011;6720;51.958;4.540;2022-09-23T06:50:07;15.17;;;9.17;;
13303;SDS011;6720;51.958;4.540;2022-09-23T06:52:34;13.30;;;9.47;;
13303;SDS011;6720;51.958;4.540;2022-09-23T06:54:59;10.87;;;9.73;;
13303;SDS011;6720;51.958;4.540;2022-09-23T06:57:28;11.57;;;10.30;;
13303;SDS011;6720;51.958;4.540;2022-09-23T06:59:54;12.73;;;10.33;;
13303;SDS011;6720;51.958;4.540;2022-09-23T07:02:22;10.83;;;9.30;;
13303;SDS011;6720;51.958;4.540;2022-09-23T07:04:47;11.17;;;9.73;;
13303;SDS011;6720;51.958;4.540;2022-09-23T07:07:12;11.97;;;9.17;;
13303;SDS011;6720;51.958;4.540;2022-09-23T07:09:40;10.90;;;9.70;;
13303;SDS011;6720;51.958;4.540;2022-09-23T07:12:05;12.43;;;9.17;;
13303;SDS011;6720;51.958;4.540;2022-09-23T07:14:32;14.17;;;9.60;;
13303;SDS011;6720;51.958;4.540;2022-09-23T07:16:57;13.63;;;10.40;;
13303;SDS011;6720;51.958;4.540;2022-09-23T07:19:23;10.67;;;9.07;;
13303;SDS011;6720;51.958;4.540;2022-09-23T07:21:50;13.13;;;9.77;;
13303;SDS011;6720;51.958;4.540;2022-09-23T07:24:15;12.27;;;9.03;;
13303;SDS011;6720;51.958;4.540;2022-09-23T07:26:42;12.30;;;8.90;;
13303;SDS011;6720;51.958;4.540;2022-09-23T07:29:10;11.33;;;9.13;;
13303;SDS011;6720;51.958;4.540;2022-09-23T07:31:37;11.33;;;8.60;;
13303;SDS011;6720;51.958;4.540;2022-09-23T07:34:02;16.63;;;9.37;;
13303;SDS011;6720;51.958;4.540;2022-09-23T07:36:28;12.00;;;9.33;;
13303;SDS011;6720;51.958;4.540;2022-09-23T07:38:56;11.07;;;9.57;;
13303;SDS011;6720;51.958;4.540;2022-09-23T07:41:26;12.27;;;9.80;;
13303;SDS011;6720;51.958;4.540;2022-09-23T07:43:53;11.23;;;9.47;;
13303;SDS011;6720;51.958;4.540;2022-09-23T07:46:23;11.50;;;9.43;;
13303;SDS011;6720;51.958;4.540;2022-09-23T07:48:50;10.10;;;9.03;;
13303;SDS011;6720;51.958;4.540;2022-09-23T07:51:21;10.07;;;9.07;;
13303;SDS011;6720;51.958;4.540;2022-09-23T07:53:48;13.77;;;9.27;;
13303;SDS011;6720;51.958;4.540;2022-09-23T07:56:15;11.47;;;9.07;;
13303;SDS011;6720;51.958;4.540;2022-09-23T07:58:43;10.87;;;8.97;;
13303;SDS011;6720;51.958;4.540;2022-09-23T08:01:09;10.80;;;9.63;;
13303;SDS011;6720;51.958;4.540;2022-09-23T08:03:36;11.90;;;8.80;;
13303;SDS011;6720;51.958;4.540;2022-09-23T08:06:06;12.23;;;9.13;;
13303;SDS011;6720;51.958;4.540;2022-09-23T08:08:33;11.10;;;9.60;;
13303;SDS011;6720;51.958;4.540;2022-09-23T08:11:03;11.53;;;9.33;;
13303;SDS011;6720;51.958;4.540;2022-09-23T08:13:30;11.43;;;8.63;;
13303;SDS011;6720;51.958;4.540;2022-09-23T08:15:56;10.07;;;8.73;;
13303;SDS011;6720;51.958;4.540;2022-09-23T08:18:22;12.00;;;8.73;;
13303;SDS011;6720;51.958;4.540;2022-09-23T08:20:47;11.20;;;8.40;;
13303;SDS011;6720;51.958;4.540;2022-09-23T08:23:13;13.03;;;8.83;;
13303;SDS011;6720;51.958;4.540;2022-09-23T08:25:40;11.97;;;8.60;;
13303;SDS011;6720;51.958;4.540;2022-09-23T08:28:06;12.20;;;8.87;;
13303;SDS011;6720;51.958;4.540;2022-09-23T08:30:32;10.27;;;8.13;;
13303;SDS011;6720;51.958;4.540;2022-09-23T08:32:58;9.60;;;8.60;;
13303;SDS011;6720;51.958;4.540;2022-09-23T08:35:23;11.13;;;8.90;;
13303;SDS011;6720;51.958;4.540;2022-09-23T08:37:49;13.70;;;8.57;;
13303;SDS011;6720;51.958;4.540;2022-09-23T08:40:14;13.73;;;8.60;;
13303;SDS011;6720;51.958;4.540;2022-09-23T08:42:40;10.77;;;8.60;;
13303;SDS011;6720;51.958;4.540;2022-09-23T08:45:14;10.93;;;8.20;;
13303;SDS011;6720;51.958;4.540;2022-09-23T08:50:22;9.60;;;8.70;;
13303;SDS011;6720;51.958;4.540;2022-09-23T08:55:21;9.23;;;7.90;;
13303;SDS011;6720;51.958;4.540;2022-09-23T09:00:22;11.30;;;8.53;;
13303;SDS011;6720;51.958;4.540;2022-09-23T09:02:53;9.50;;;8.50;;
13303;SDS011;6720;51.958;4.540;2022-09-23T09:05:22;9.43;;;8.07;;
13303;SDS011;6720;51.958;4.540;2022-09-23T09:07:50;11.53;;;8.30;;
13303;SDS011;6720;51.958;4.540;2022-09-23T09:10:18;12.23;;;8.03;;
13303;SDS011;6720;51.958;4.540;2022-09-23T09:18:53;8.60;;;7.70;;
13303;SDS011;6720;51.958;4.540;2022-09-23T09:21:41;10.20;;;8.30;;
13303;SDS011;6720;51.958;4.540;2022-09-23T09:24:11;12.07;;;8.00;;
13303;SDS011;6720;51.958;4.540;2022-09-23T09:26:41;10.30;;;7.80;;
13303;SDS011;6720;51.958;4.540;2022-09-23T09:29:11;8.67;;;7.77;;
13303;SDS011;6720;51.958;4.540;2022-09-23T09:31:47;8.87;;;7.53;;
13303;SDS011;6720;51.958;4.540;2022-09-23T09:37:06;10.27;;;8.20;;
13303;SDS011;6720;51.958;4.540;2022-09-23T09:39:36;10.20;;;7.60;;
13303;SDS011;6720;51.958;4.540;2022-09-23T09:42:02;11.40;;;8.30;;
13303;SDS011;6720;51.958;4.540;2022-09-23T09:47:27;9.40;;;7.50;;
13303;SDS011;6720;51.958;4.540;2022-09-23T09:50:16;9.13;;;7.00;;
13303;SDS011;6720;51.958;4.540;2022-09-23T09:56:03;11.67;;;7.63;;
13303;SDS011;6720;51.958;4.540;2022-09-23T09:58:35;12.30;;;7.33;;
13303;SDS011;6720;51.958;4.540;2022-09-23T10:01:05;11.63;;;7.63;;
13303;SDS011;6720;51.958;4.540;2022-09-23T10:03:38;8.33;;;6.90;;
13303;SDS011;6720;51.958;4.540;2022-09-23T10:14:28;10.70;;;7.40;;
13303;SDS011;6720;51.958;4.540;2022-09-23T10:17:01;11.67;;;7.70;;
13303;SDS011;6720;51.958;4.540;2022-09-23T10:19:29;10.50;;;6.93;;
13303;SDS011;6720;51.958;4.540;2022-09-23T10:21:55;10.00;;;7.80;;
13303;SDS011;6720;51.958;4.540;2022-09-23T10:24:28;9.93;;;7.20;;
13303;SDS011;6720;51.958;4.540;2022-09-23T10:27:00;7.97;;;7.07;;
13303;SDS011;6720;51.958;4.540;2022-09-23T10:32:16;9.87;;;7.70;;
13303;SDS011;6720;51.958;4.540;2022-09-23T10:35:11;10.67;;;7.43;;
13303;SDS011;6720;51.958;4.540;2022-09-23T11:05:32;7.87;;;7.07;;
13303;SDS011;6720;51.958;4.540;2022-09-23T11:11:09;8.53;;;7.03;;
13303;SDS011;6720;51.958;4.540;2022-09-23T11:17:21;10.17;;;7.30;;
13303;SDS011;6720;51.958;4.540;2022-09-23T11:19:34;8.53;;;7.67;;
13303;SDS011;6720;51.958;4.540;2022-09-23T11:30:15;10.70;;;8.20;;
13303;SDS011;6720;51.958;4.540;2022-09-23T11:38:38;8.33;;;7.40;;
13303;SDS011;6720;51.958;4.540;2022-09-23T11:41:28;9.77;;;7.93;;
13303;SDS011;6720;51.958;4.540;2022-09-23T11:44:02;10.10;;;8.07;;
13303;SDS011;6720;51.958;4.540;2022-09-23T11:46:38;8.50;;;7.60;;
13303;SDS011;6720;51.958;4.540;2022-09-23T11:49:11;8.67;;;7.53;;
13303;SDS011;6720;51.958;4.540;2022-09-23T11:51:58;10.80;;;8.30;;
13303;SDS011;6720;51.958;4.540;2022-09-23T11:55:12;9.67;;;8.47;;
13303;SDS011;6720;51.958;4.540;2022-09-23T12:00:17;12.10;;;8.23;;
13303;SDS011;6720;51.958;4.540;2022-09-23T12:02:59;9.93;;;7.87;;
13303;SDS011;6720;51.958;4.540;2022-09-23T12:05:47;9.00;;;7.23;;
13303;SDS011;6720;51.958;4.540;2022-09-23T12:19:08;7.97;;;7.00;;
13303;SDS011;6720;51.958;4.540;2022-09-23T12:27:11;9.27;;;7.80;;
13303;SDS011;6720;51.958;4.540;2022-09-23T12:30:01;9.40;;;7.00;;
13303;SDS011;6720;51.958;4.540;2022-09-23T12:32:29;10.20;;;6.20;;
13303;SDS011;6720;51.958;4.540;2022-09-23T12:34:55;8.33;;;6.70;;
13303;SDS011;6720;51.958;4.540;2022-09-23T12:37:28;7.67;;;6.70;;
13303;SDS011;6720;51.958;4.540;2022-09-23T12:39:58;9.87;;;7.23;;
13303;SDS011;6720;51.958;4.540;2022-09-23T12:42:30;8.30;;;6.47;;
13303;SDS011;6720;51.958;4.540;2022-09-23T12:45:14;8.17;;;7.23;;
13303;SDS011;6720;51.958;4.540;2022-09-23T12:47:55;10.40;;;7.87;;
13303;SDS011;6720;51.958;4.540;2022-09-23T12:56:13;12.93;;;9.20;;
13303;SDS011;6720;51.958;4.540;2022-09-23T13:01:22;11.20;;;9.53;;
13303;SDS011;6720;51.958;4.540;2022-09-23T13:03:55;12.23;;;10.27;;
13303;SDS011;6720;51.958;4.540;2022-09-23T13:06:42;12.10;;;9.20;;
13303;SDS011;6720;51.958;4.540;2022-09-23T13:09:30;10.10;;;9.10;;
13303;SDS011;6720;51.958;4.540;2022-09-23T13:12:00;10.37;;;9.37;;
13303;SDS011;6720;51.958;4.540;2022-09-23T13:14:29;11.90;;;9.90;;
13303;SDS011;6720;51.958;4.540;2022-09-23T13:16:57;10.80;;;9.63;;
13303;SDS011;6720;51.958;4.540;2022-09-23T13:22:02;10.87;;;9.83;;
13303;SDS011;6720;51.958;4.540;2022-09-23T13:27:34;13.77;;;9.57;;
13303;SDS011;6720;51.958;4.540;2022-09-23T13:30:19;10.50;;;9.33;;
13303;SDS011;6720;51.958;4.540;2022-09-23T13:35:35;12.33;;;10.40;;
13303;SDS011;6720;51.958;4.540;2022-09-23T13:38:22;11.90;;;9.23;;
13303;SDS011;6720;51.958;4.540;2022-09-23T13:40:51;12.23;;;9.20;;
13303;SDS011;6720;51.958;4.540;2022-09-23T13:45:55;10.50;;;9.40;;
13303;SDS011;6720;51.958;4.540;2022-09-23T13:48:22;11.67;;;9.97;;
13303;SDS011;6720;51.958;4.540;2022-09-23T13:50:50;13.47;;;10.03;;
13303;SDS011;6720;51.958;4.540;2022-09-23T13:53:24;11.97;;;10.13;;
13303;SDS011;6720;51.958;4.540;2022-09-23T13:58:38;11.03;;;9.53;;
13303;SDS011;6720;51.958;4.540;2022-09-23T14:01:06;10.47;;;9.17;;
13303;SDS011;6720;51.958;4.540;2022-09-23T14:03:35;14.40;;;9.63;;
13303;SDS011;6720;51.958;4.540;2022-09-23T14:06:08;11.23;;;8.70;;
13303;SDS011;6720;51.958;4.540;2022-09-23T14:08:38;10.83;;;9.73;;
13303;SDS011;6720;51.958;4.540;2022-09-23T14:11:07;12.80;;;10.63;;
13303;SDS011;6720;51.958;4.540;2022-09-23T14:13:42;13.67;;;11.03;;
13303;SDS011;6720;51.958;4.540;2022-09-23T14:16:10;14.30;;;11.33;;
13303;SDS011;6720;51.958;4.540;2022-09-23T14:18:43;12.20;;;10.90;;
13303;SDS011;6720;51.958;4.540;2022-09-23T14:21:26;12.53;;;10.77;;
13303;SDS011;6720;51.958;4.540;2022-09-23T14:26:35;13.60;;;11.03;;
13303;SDS011;6720;51.958;4.540;2022-09-23T14:29:00;14.67;;;11.50;;
13303;SDS011;6720;51.958;4.540;2022-09-23T14:31:26;14.17;;;11.43;;
13303;SDS011;6720;51.958;4.540;2022-09-23T14:33:52;16.67;;;11.97;;
13303;SDS011;6720;51.958;4.540;2022-09-23T14:36:17;13.10;;;11.67;;
13303;SDS011;6720;51.958;4.540;2022-09-23T14:39:08;13.43;;;11.47;;
13303;SDS011;6720;51.958;4.540;2022-09-23T14:41:40;15.87;;;12.37;;
13303;SDS011;6720;51.958;4.540;2022-09-23T14:44:21;16.87;;;12.30;;
13303;SDS011;6720;51.958;4.540;2022-09-23T14:46:53;15.70;;;12.53;;
13303;SDS011;6720;51.958;4.540;2022-09-23T14:49:21;16.23;;;12.97;;
13303;SDS011;6720;51.958;4.540;2022-09-23T14:51:51;15.27;;;12.97;;
13303;SDS011;6720;51.958;4.540;2022-09-23T14:56:53;16.07;;;13.43;;
13303;SDS011;6720;51.958;4.540;2022-09-23T14:59:32;15.73;;;14.13;;
13303;SDS011;6720;51.958;4.540;2022-09-23T15:02:02;18.00;;;14.30;;
13303;SDS011;6720;51.958;4.540;2022-09-23T15:07:50;17.10;;;14.03;;
13303;SDS011;6720;51.958;4.540;2022-09-23T15:12:48;15.77;;;14.17;;
13303;SDS011;6720;51.958;4.540;2022-09-23T15:15:15;17.47;;;14.53;;
13303;SDS011;6720;51.958;4.540;2022-09-23T15:17:42;15.93;;;14.17;;
13303;SDS011;6720;51.958;4.540;2022-09-23T15:22:44;16.33;;;14.53;;
13303;SDS011;6720;51.958;4.540;2022-09-23T15:25:15;17.40;;;14.23;;
13303;SDS011;6720;51.958;4.540;2022-09-23T15:27:54;18.47;;;16.30;;
13303;SDS011;6720;51.958;4.540;2022-09-23T15:30:23;18.23;;;16.33;;
13303;SDS011;6720;51.958;4.540;2022-09-23T15:32:49;17.90;;;16.03;;
13303;SDS011;6720;51.958;4.540;2022-09-23T15:35:16;19.37;;;16.30;;
13303;SDS011;6720;51.958;4.540;2022-09-23T15:37:43;21.80;;;18.40;;
13303;SDS011;6720;51.958;4.540;2022-09-23T15:40:29;20.77;;;18.53;;
13303;SDS011;6720;51.958;4.540;2022-09-23T15:42:57;19.77;;;17.67;;
13303;SDS011;6720;51.958;4.540;2022-09-23T15:45:34;20.03;;;17.93;;
13303;SDS011;6720;51.958;4.540;2022-09-23T15:48:05;21.57;;;17.83;;
13303;SDS011;6720;51.958;4.540;2022-09-23T15:50:35;22.83;;;18.87;;
13303;SDS011;6720;51.958;4.540;2022-09-23T15:53:02;21.80;;;19.50;;
13303;SDS011;6720;51.958;4.540;2022-09-23T15:55:28;22.93;;;20.40;;
13303;SDS011;6720;51.958;4.540;2022-09-23T15:57:54;21.97;;;19.77;;
13303;SDS011;6720;51.958;4.540;2022-09-23T16:00:19;25.60;;;19.83;;
13303;SDS011;6720;51.958;4.540;2022-09-23T16:02:46;22.60;;;20.30;;
13303;SDS011;6720;51.958;4.540;2022-09-23T16:05:28;25.93;;;19.83;;
13303;SDS011;6720;51.958;4.540;2022-09-23T16:07:58;26.70;;;21.67;;
13303;SDS011;6720;51.958;4.540;2022-09-23T16:10:24;24.07;;;21.47;;
13303;SDS011;6720;51.958;4.540;2022-09-23T16:12:51;23.83;;;21.33;;
13303;SDS011;6720;51.958;4.540;2022-09-23T16:15:19;26.23;;;22.33;;
13303;SDS011;6720;51.958;4.540;2022-09-23T16:17:46;30.00;;;23.27;;
13303;SDS011;6720;51.958;4.540;2022-09-23T16:20:12;26.33;;;22.53;;
13303;SDS011;6720;51.958;4.540;2022-09-23T16:22:47;26.07;;;23.20;;
13303;SDS011;6720;51.958;4.540;2022-09-23T16:25:15;27.97;;;24.33;;
13303;SDS011;6720;51.958;4.540;2022-09-23T16:27:41;26.30;;;23.50;;
13303;SDS011;6720;51.958;4.540;2022-09-23T16:30:06;27.93;;;23.53;;
13303;SDS011;6720;51.958;4.540;2022-09-23T16:32:32;27.73;;;23.70;;
13303;SDS011;6720;51.958;4.540;2022-09-23T16:34:57;26.33;;;23.53;;
13303;SDS011;6720;51.958;4.540;2022-09-23T16:37:23;26.77;;;23.87;;
13303;SDS011;6720;51.958;4.540;2022-09-23T16:39:48;26.43;;;23.63;;
13303;SDS011;6720;51.958;4.540;2022-09-23T16:42:14;26.13;;;23.33;;
13303;SDS011;6720;51.958;4.540;2022-09-23T16:44:40;27.77;;;24.63;;
13303;SDS011;6720;51.958;4.540;2022-09-23T16:47:05;29.03;;;24.80;;
13303;SDS011;6720;51.958;4.540;2022-09-23T16:49:31;29.90;;;25.80;;
13303;SDS011;6720;51.958;4.540;2022-09-23T16:51:56;30.00;;;24.40;;
13303;SDS011;6720;51.958;4.540;2022-09-23T16:54:23;30.03;;;25.20;;
13303;SDS011;6720;51.958;4.540;2022-09-23T16:56:48;28.50;;;25.57;;
13303;SDS011;6720;51.958;4.540;2022-09-23T16:59:14;30.17;;;25.53;;
13303;SDS011;6720;51.958;4.540;2022-09-23T17:01:40;27.20;;;24.23;;
13303;SDS011;6720;51.958;4.540;2022-09-23T17:04:25;27.73;;;23.03;;
13303;SDS011;6720;51.958;4.540;2022-09-23T17:06:51;28.17;;;25.20;;
13303;SDS011;6720;51.958;4.540;2022-09-23T17:09:19;28.67;;;23.43;;
13303;SDS011;6720;51.958;4.540;2022-09-23T17:11:45;33.37;;;24.87;;
13303;SDS011;6720;51.958;4.540;2022-09-23T17:14:16;25.80;;;23.00;;
13303;SDS011;6720;51.958;4.540;2022-09-23T17:16:42;28.93;;;22.87;;
13303;SDS011;6720;51.958;4.540;2022-09-23T17:19:08;28.30;;;22.87;;
13303;SDS011;6720;51.958;4.540;2022-09-23T17:21:35;26.07;;;22.27;;
13303;SDS011;6720;51.958;4.540;2022-09-23T17:24:01;24.73;;;21.73;;
13303;SDS011;6720;51.958;4.540;2022-09-23T17:26:27;29.30;;;23.10;;
13303;SDS011;6720;51.958;4.540;2022-09-23T17:28:53;25.53;;;22.57;;
13303;SDS011;6720;51.958;4.540;2022-09-23T17:31:20;26.63;;;21.67;;
13303;SDS011;6720;51.958;4.540;2022-09-23T17:33:46;26.07;;;21.20;;
13303;SDS011;6720;51.958;4.540;2022-09-23T17:36:12;23.03;;;20.27;;
13303;SDS011;6720;51.958;4.540;2022-09-23T17:38:40;24.80;;;19.80;;
13303;SDS011;6720;51.958;4.540;2022-09-23T17:41:07;22.50;;;20.10;;
13303;SDS011;6720;51.958;4.540;2022-09-23T17:43:33;21.93;;;18.23;;
13303;SDS011;6720;51.958;4.540;2022-09-23T17:46:05;22.60;;;19.27;;
13303;SDS011;6720;51.958;4.540;2022-09-23T17:48:34;21.23;;;18.93;;
13303;SDS011;6720;51.958;4.540;2022-09-23T17:51:05;24.30;;;20.43;;
13303;SDS011;6720;51.958;4.540;2022-09-23T17:53:34;22.30;;;19.70;;
13303;SDS011;6720;51.958;4.540;2022-09-23T17:56:02;20.83;;;18.80;;
13303;SDS011;6720;51.958;4.540;2022-09-23T17:58:51;24.13;;;20.63;;